BERICHT 22/12/2019: De oude website is tijdelijk weer online! In 2020 zal er een volledig nieuwe site uitgerold worden, die nu volop in ontwikkeling is! Ondertussen blijven onderstaande metingen wel actueel!

Weerstation Zoersel Live Webcam Weerstation Zoersel Live Webcam


sateliet wolkenradar  


Doneren

CBI


onweer radar meer informatie blitzortung!


regen radar  rain snow radar


Enkele sfeerfotootjes...  

We konden geen weer-waarchuwingen ophalen. Ga rechtstreeks naar de Meteoalarm site : www.meteoalarm.eu en controleer daar .

metar rapporten vliegvelden

   
EBAW - Antwerp
gewijzigd: 30-03-2023 14:20
Light Showers, regen, gedeeltelijk bewolkt  
Light Showers, regen, gedeeltelijk bewolkt  
   wind: wzw 33,3 km/h<br />Gust to 33,3 km/h
wind: wzw 33,3 km/h
Gust to 33,3 km/h
temperatuur: 14°C
dauwpunt: 7°C
vochtigheid: 63%
barometer: 1008 hPa
bewolking: gedeeltelijk bewolkt
zicht: meer dan 10 km
bewolking: gedeeltelijk bewolkt 3100 ft
EBAW 301220Z 24018G28KT 220V280 9999 -SHRA SCT031 14/07 Q1008 TEMPO 4000 SHRA
EBLG - Li├Ęge
gewijzigd: 30-03-2023 14:20
Light Showers, regen, grotendeels bewolkt  
Light Showers, regen, grotendeels bewolkt  
   wind: wzw 42,6 km/h<br />Gust to 42,6 km/h
wind: wzw 42,6 km/h
Gust to 42,6 km/h
temperatuur: 11°C
dauwpunt: 8°C
vochtigheid: 82%
barometer: 1010 hPa
bewolking: grotendeels bewolkt
zicht: 8 km
bewolking: licht bewolkt 800 ft,
gedeeltelijk bewolkt 2500 ft,
grotendeels bewolkt 3500 ft
EBLG 301220Z 24023G36KT 8000 -SHRA FEW008 SCT025CB BKN035 11/08 Q1010 TEMPO 3000 SHRAGS
EBCV - Mons/Bergen
gewijzigd: 30-03-2023 13:55
  
  
   wind: wzw 27,8 km/h
wind: wzw 27,8 km/h
temperatuur: 15°C
dauwpunt: 9°C
vochtigheid: 68%
barometer: 1009 hPa
zicht: meer dan 10 km
EBCV 301155Z AUTO 25015KT 9999 /// 15/09 Q1009 BLU
EHBK - Maastricht
gewijzigd: 30-03-2023 14:25
wat regen, motregen, bewolking  
wat regen, motregen, bewolking  
   wind: westen 18,5 km/h
wind: westen 18,5 km/h
temperatuur: 11°C
dauwpunt: 9°C
vochtigheid: 88%
barometer: 1009 hPa
bewolking: bewolking
zicht: meer dan 10 km
bewolking: licht bewolkt 1500 ft,
gedeeltelijk bewolkt 3500 ft,
grotendeels bewolkt 4100 ft,
bewolking 4700 ft
EHBK 301225Z AUTO 26010KT 230V330 9999 -RADZ FEW015CB SCT035 BKN041 OVC047 11/09 Q1009 RERA TEMPO 6000 SHRA SCT020CB
ELLX - Luxemburg
gewijzigd: 30-03-2023 14:20
licht bewolkt  
licht bewolkt  
   wind: wzw 31,5 km/h
wind: wzw 31,5 km/h
temperatuur: 13°C
dauwpunt: 8°C
vochtigheid: 72%
barometer: 1011 hPa
bewolking: licht bewolkt
zicht: meer dan 10 km
bewolking: licht bewolkt 2700 ft
ELLX 301220Z 24017KT 9999 FEW027CB 13/08 Q1011 TEMPO 24015G35KT BECMG SCT030CB
EBOS - Oostende
gewijzigd: 30-03-2023 14:20
grotendeels bewolkt  
grotendeels bewolkt  
   wind: westen 37 km/h
wind: westen 37 km/h
temperatuur: 12°C
dauwpunt: 8°C
vochtigheid: 77%
barometer: 1008 hPa
bewolking: grotendeels bewolkt
zicht: meer dan 10 km
bewolking: licht bewolkt 1800 ft,
gedeeltelijk bewolkt 2200 ft,
grotendeels bewolkt 2600 ft
EBOS 301220Z 26020KT 9999 FEW018TCU SCT022 BKN026 12/08 Q1008 TEMPO 25022G33KT

script ontwikkeld door  Saratoga-weather.org aangepast voor de template door  Weerstation Leuven